Time,TemperatureF,DewpointF,PressureIn,WindDirection,WindDirectionDegrees,WindSpeedMPH,WindSpeedGustMPH,Humidity,HourlyPrecipIn,Conditions,Clouds,dailyrainin,SoftwareType,DateUTC
2013-03-21 00:00:00,46.7,36.3,29.79,NNE,17,2.0,5.0,67,0.00,,---,0.00,VWS V14.01,2013-03-21 04:00:00,
2013-03-21 00:05:00,46.6,35.5,29.79,NNE,13,4.0,5.0,65,0.00,,---,0.00,VWS V14.01,2013-03-21 04:05:00,
2013-03-21 00:10:00,46.7,35.2,29.78,NNE,14,4.0,4.0,64,0.00,,---,0.00,VWS V14.01,2013-03-21 04:10:00,
2013-03-21 00:15:00,46.8,35.7,29.78,NNE,16,4.0,5.0,65,0.00,,---,0.00,VWS V14.01,2013-03-21 04:15:00,
2013-03-21 00:20:00,46.9,36.2,29.78,NNE,16,3.0,4.0,66,0.00,,---,0.00,VWS V14.01,2013-03-21 04:20:00,
2013-03-21 00:25:00,47.0,35.9,29.77,NNE,17,4.0,4.0,65,0.00,,---,0.00,VWS V14.01,2013-03-21 04:25:00,
2013-03-21 00:30:00,46.9,35.8,29.77,NNE,17,4.0,5.0,65,0.00,,---,0.00,VWS V14.01,2013-03-21 04:30:00,
2013-03-21 00:35:00,47.0,36.2,29.77,NNE,17,4.0,5.0,66,0.00,,---,0.00,VWS V14.01,2013-03-21 04:35:00,
2013-03-21 00:40:00,47.2,35.7,29.77,NNE,17,4.0,5.0,64,0.00,,---,0.00,VWS V14.01,2013-03-21 04:40:00,
2013-03-21 00:45:00,46.7,36.0,29.77,NNE,17,3.0,5.0,66,0.00,,---,0.00,VWS V14.01,2013-03-21 04:45:00,
2013-03-21 00:50:00,46.4,36.0,29.77,NNE,17,3.0,4.0,67,0.00,,---,0.00,VWS V14.01,2013-03-21 04:50:00,
2013-03-21 00:55:00,46.6,36.6,29.77,NNE,17,3.0,3.0,68,0.00,,---,0.00,VWS V14.01,2013-03-21 04:55:00,
2013-03-21 01:00:00,47.0,36.2,29.76,NNE,17,3.0,4.0,66,0.00,,---,0.00,VWS V14.01,2013-03-21 05:00:00,
2013-03-21 01:05:00,47.2,36.0,29.76,NNE,17,3.0,4.0,65,0.00,,---,0.00,VWS V14.01,2013-03-21 05:05:00,
2013-03-21 01:10:00,46.9,37.6,29.76,North,11,5.0,5.0,70,0.00,,---,0.00,VWS V14.01,2013-03-21 05:10:00,
2013-03-21 01:15:00,46.3,37.8,29.76,North,5,5.0,5.0,72,0.00,,---,0.00,VWS V14.01,2013-03-21 05:15:00,
2013-03-21 01:20:00,45.4,37.3,29.75,North,360,4.0,5.0,73,0.00,,---,0.00,VWS V14.01,2013-03-21 05:20:00,
2013-03-21 01:25:00,44.7,36.9,29.75,North,351,4.0,5.0,74,0.00,,---,0.00,VWS V14.01,2013-03-21 05:25:00,
2013-03-21 01:30:00,44.2,36.8,29.75,North,355,4.0,5.0,75,0.00,,---,0.00,VWS V14.01,2013-03-21 05:30:00,
2013-03-21 01:35:00,44.0,36.6,29.74,North,360,0.0,4.0,75,0.00,,---,0.00,VWS V14.01,2013-03-21 05:35:00,
2013-03-21 01:40:00,43.9,36.8,29.73,North,360,0.0,0.0,76,0.00,,---,0.00,VWS V14.01,2013-03-21 05:40:00,
2013-03-21 01:45:00,43.8,36.7,29.73,North,360,0.0,0.0,76,0.00,,---,0.00,VWS V14.01,2013-03-21 05:45:00,
2013-03-21 01:50:00,43.6,36.5,29.73,North,360,0.0,0.0,76,0.00,,---,0.00,VWS V14.01,2013-03-21 05:50:00,
2013-03-21 01:55:00,43.4,36.3,29.73,North,360,0.0,0.0,76,0.00,,---,0.00,VWS V14.01,2013-03-21 05:55:00,
2013-03-21 02:00:00,43.6,37.2,29.73,North,360,0.0,0.0,78,0.00,,---,0.00,VWS V14.01,2013-03-21 06:00:00,
2013-03-21 02:05:00,44.8,38.0,29.72,North,360,4.0,5.0,77,0.00,,---,0.00,VWS V14.01,2013-03-21 06:05:00,
2013-03-21 02:10:00,45.1,37.3,29.72,North,360,4.0,5.0,74,0.00,,---,0.00,VWS V14.01,2013-03-21 06:10:00,
2013-03-21 02:15:00,45.3,37.5,29.71,North,360,4.0,5.0,74,0.00,,---,0.00,VWS V14.01,2013-03-21 06:15:00,
2013-03-21 02:20:00,44.8,37.0,29.71,North,360,4.0,5.0,74,0.00,,---,0.00,VWS V14.01,2013-03-21 06:20:00,
2013-03-21 02:25:00,45.2,36.4,29.70,North,360,4.0,4.0,71,0.00,,---,0.00,VWS V14.01,2013-03-21 06:25:00,
2013-03-21 02:30:00,45.4,36.2,29.70,North,360,0.0,3.0,70,0.00,,---,0.00,VWS V14.01,2013-03-21 06:30:00,
2013-03-21 02:35:00,44.8,36.0,29.70,North,360,0.0,0.0,71,0.00,,---,0.00,VWS V14.01,2013-03-21 06:35:00,
2013-03-21 02:40:00,44.5,36.4,29.70,North,360,0.0,0.0,73,0.00,,---,0.00,VWS V14.01,2013-03-21 06:40:00,
2013-03-21 02:45:00,45.0,36.9,29.69,North,360,0.0,0.0,73,0.00,,---,0.00,VWS V14.01,2013-03-21 06:45:00,
2013-03-21 02:50:00,45.0,36.9,29.69,North,360,0.0,0.0,73,0.00,,---,0.00,VWS V14.01,2013-03-21 06:50:00,
2013-03-21 02:55:00,44.6,36.5,29.69,North,360,0.0,0.0,73,0.00,,---,0.00,VWS V14.01,2013-03-21 06:55:00,
2013-03-21 03:00:00,44.3,36.5,29.69,North,360,0.0,0.0,74,0.00,,---,0.00,VWS V14.01,2013-03-21 07:00:00,
2013-03-21 03:05:00,44.2,36.5,29.69,North,360,0.0,0.0,74,0.00,,---,0.00,VWS V14.01,2013-03-21 07:05:00,
2013-03-21 03:10:00,44.4,37.0,29.69,North,360,0.0,0.0,75,0.00,,---,0.00,VWS V14.01,2013-03-21 07:10:00,
2013-03-21 03:15:00,44.9,37.1,29.68,North,360,0.0,0.0,74,0.00,,---,0.00,VWS V14.01,2013-03-21 07:15:00,
2013-03-21 03:20:00,45.6,35.7,29.68,North,360,0.0,0.0,68,0.00,,---,0.00,VWS V14.01,2013-03-21 07:20:00,
2013-03-21 03:25:00,45.9,35.6,29.68,North,360,3.0,5.0,67,0.00,,---,0.00,VWS V14.01,2013-03-21 07:25:00,
2013-03-21 03:30:00,45.9,34.4,29.68,North,360,3.0,4.0,64,0.00,,---,0.00,VWS V14.01,2013-03-21 07:30:00,
2013-03-21 03:35:00,45.2,35.7,29.68,North,360,3.0,4.0,69,0.00,,---,0.00,VWS V14.01,2013-03-21 07:35:00,
2013-03-21 03:40:00,44.8,34.9,29.67,North,360,0.0,3.0,68,0.00,,---,0.00,VWS V14.01,2013-03-21 07:40:00,
2013-03-21 03:45:00,44.3,35.2,29.67,North,360,0.0,0.0,70,0.00,,---,0.00,VWS V14.01,2013-03-21 07:45:00,
2013-03-21 03:50:00,43.8,35.7,29.67,North,360,0.0,0.0,73,0.00,,---,0.00,VWS V14.01,2013-03-21 07:50:00,
2013-03-21 03:55:00,43.7,36.3,29.67,North,360,0.0,0.0,75,0.00,,---,0.00,VWS V14.01,2013-03-21 07:55:00,
2013-03-21 04:00:00,43.4,36.0,29.67,North,360,0.0,0.0,75,0.00,,---,0.00,VWS V14.01,2013-03-21 08:00:00,
2013-03-21 04:05:00,42.9,35.9,29.67,North,360,0.0,0.0,76,0.00,,---,0.00,VWS V14.01,2013-03-21 08:05:00,
2013-03-21 04:10:00,42.7,36.3,29.67,North,360,0.0,0.0,78,0.00,,---,0.00,VWS V14.01,2013-03-21 08:10:00,
2013-03-21 04:15:00,42.9,36.5,29.67,North,360,0.0,0.0,78,0.00,,---,0.00,VWS V14.01,2013-03-21 08:15:00,
2013-03-21 04:20:00,42.7,36.3,29.66,North,360,0.0,0.0,78,0.00,,---,0.00,VWS V14.01,2013-03-21 08:20:00,
2013-03-21 04:25:00,42.4,36.0,29.66,North,360,0.0,0.0,78,0.00,,---,0.00,VWS V14.01,2013-03-21 08:25:00,
2013-03-21 04:30:00,42.3,35.9,29.66,North,360,0.0,0.0,78,0.00,,---,0.00,VWS V14.01,2013-03-21 08:30:00,
2013-03-21 04:35:00,42.4,36.0,29.66,North,360,0.0,0.0,78,0.00,,---,0.00,VWS V14.01,2013-03-21 08:35:00,
2013-03-21 04:40:00,42.8,36.8,29.66,North,360,0.0,0.0,79,0.00,,---,0.00,VWS V14.01,2013-03-21 08:40:00,
2013-03-21 04:45:00,42.7,36.7,29.66,North,360,0.0,0.0,79,0.00,,---,0.00,VWS V14.01,2013-03-21 08:45:00,
2013-03-21 04:50:00,42.7,36.7,29.66,North,360,0.0,0.0,79,0.00,,---,0.00,VWS V14.01,2013-03-21 08:50:00,
2013-03-21 04:55:00,42.8,37.1,29.66,North,360,0.0,0.0,80,0.00,,---,0.00,VWS V14.01,2013-03-21 08:55:00,
2013-03-21 05:00:00,42.6,36.5,29.66,North,360,0.0,0.0,79,0.00,,---,0.00,VWS V14.01,2013-03-21 09:00:00,
2013-03-21 05:05:00,41.9,35.9,29.66,North,360,0.0,0.0,79,0.00,,---,0.00,VWS V14.01,2013-03-21 09:05:00,
2013-03-21 05:10:00,41.4,35.1,29.66,North,360,2.0,2.0,78,0.00,,---,0.00,VWS V14.01,2013-03-21 09:10:00,
2013-03-21 05:15:00,41.1,35.4,29.66,North,360,2.0,4.0,80,0.00,,---,0.00,VWS V14.01,2013-03-21 09:15:00,
2013-03-21 05:20:00,41.2,36.1,29.66,North,360,0.0,3.0,82,0.00,,---,0.00,VWS V14.01,2013-03-21 09:20:00,
2013-03-21 05:25:00,41.0,35.6,29.66,North,360,0.0,0.0,81,0.00,,---,0.00,VWS V14.01,2013-03-21 09:25:00,
2013-03-21 05:30:00,40.8,35.7,29.66,North,360,0.0,0.0,82,0.00,,---,0.00,VWS V14.01,2013-03-21 09:30:00,
2013-03-21 05:35:00,40.7,35.6,29.67,North,360,0.0,0.0,82,0.00,,---,0.00,VWS V14.01,2013-03-21 09:35:00,
2013-03-21 05:40:00,40.4,35.3,29.67,North,360,0.0,0.0,82,0.00,,---,0.00,VWS V14.01,2013-03-21 09:40:00,
2013-03-21 05:45:00,40.7,36.0,29.67,North,360,2.0,3.0,83,0.00,,---,0.00,VWS V14.01,2013-03-21 09:45:00,
2013-03-21 05:50:00,40.7,35.6,29.67,North,355,2.0,2.0,82,0.00,,---,0.00,VWS V14.01,2013-03-21 09:50:00,
2013-03-21 05:55:00,40.5,35.8,29.67,NW,318,8.0,9.0,83,0.00,,---,0.00,VWS V14.01,2013-03-21 09:55:00,
2013-03-21 06:00:00,41.3,36.5,29.68,NNW,342,6.0,9.0,83,0.00,,---,0.00,VWS V14.01,2013-03-21 10:00:00,
2013-03-21 06:05:00,41.3,36.5,29.68,North,360,4.0,10.0,83,0.00,,---,0.00,VWS V14.01,2013-03-21 10:05:00,
2013-03-21 06:10:00,41.1,36.3,29.68,NW,325,7.0,9.0,83,0.00,,---,0.00,VWS V14.01,2013-03-21 10:10:00,
2013-03-21 06:15:00,41.1,36.0,29.68,NNW,346,5.0,8.0,82,0.00,,---,0.00,VWS V14.01,2013-03-21 10:15:00,
2013-03-21 06:20:00,41.1,36.0,29.68,North,355,6.0,8.0,82,0.00,,---,0.00,VWS V14.01,2013-03-21 10:20:00,
2013-03-21 06:25:00,41.2,35.5,29.68,NNW,341,9.0,10.0,80,0.00,,---,0.00,VWS V14.01,2013-03-21 10:25:00,
2013-03-21 06:30:00,41.2,34.9,29.68,North,355,5.0,9.0,78,0.00,,---,0.00,VWS V14.01,2013-03-21 10:30:00,
2013-03-21 06:35:00,40.9,34.3,29.68,North,5,9.0,9.0,77,0.00,,---,0.00,VWS V14.01,2013-03-21 10:35:00,
2013-03-21 06:40:00,40.7,34.1,29.68,NNW,340,8.0,11.0,77,0.00,,---,0.00,VWS V14.01,2013-03-21 10:40:00,
2013-03-21 06:45:00,40.5,33.5,29.68,North,351,5.0,8.0,76,0.00,,---,0.00,VWS V14.01,2013-03-21 10:45:00,
2013-03-21 06:50:00,40.3,33.7,29.68,North,355,5.0,6.0,77,0.00,,---,0.00,VWS V14.01,2013-03-21 10:50:00,
2013-03-21 06:55:00,40.1,33.5,29.68,North,355,4.0,8.0,77,0.00,,---,0.00,VWS V14.01,2013-03-21 10:55:00,
2013-03-21 07:00:00,39.9,33.6,29.68,North,355,4.0,7.0,78,0.00,,---,0.00,VWS V14.01,2013-03-21 11:00:00,
2013-03-21 07:05:00,39.8,33.2,29.68,North,360,7.0,8.0,77,0.00,,---,0.00,VWS V14.01,2013-03-21 11:05:00,
2013-03-21 07:10:00,39.8,33.2,29.68,North,350,5.0,7.0,77,0.00,,---,0.00,VWS V14.01,2013-03-21 11:10:00,
2013-03-21 07:15:00,39.8,32.9,29.68,NNW,344,2.0,7.0,76,0.00,,---,0.00,VWS V14.01,2013-03-21 11:15:00,
2013-03-21 07:20:00,39.8,32.9,29.68,NNW,330,3.0,5.0,76,0.00,,---,0.00,VWS V14.01,2013-03-21 11:20:00,
2013-03-21 07:25:00,39.7,33.1,29.68,NNW,332,3.0,5.0,77,0.00,,---,0.00,VWS V14.01,2013-03-21 11:25:00,
2013-03-21 07:30:00,39.7,33.1,29.68,NNW,336,5.0,6.0,77,0.00,,---,0.00,VWS V14.01,2013-03-21 11:30:00,
2013-03-21 07:35:00,39.9,33.3,29.68,NNW,340,4.0,5.0,77,0.00,,---,0.00,VWS V14.01,2013-03-21 11:35:00,
2013-03-21 07:40:00,40.1,33.2,29.68,NNW,347,4.0,6.0,76,0.00,,---,0.00,VWS V14.01,2013-03-21 11:40:00,
2013-03-21 07:45:00,40.4,33.5,29.69,NNW,338,3.0,5.0,76,0.00,,---,0.00,VWS V14.01,2013-03-21 11:45:00,
2013-03-21 07:50:00,40.6,33.6,29.68,NNW,332,1.0,4.0,76,0.00,,---,0.00,VWS V14.01,2013-03-21 11:50:00,
2013-03-21 07:55:00,40.7,33.4,29.68,NNW,344,4.0,6.0,75,0.00,,---,0.00,VWS V14.01,2013-03-21 11:55:00,
2013-03-21 08:00:00,41.0,33.4,29.68,NNW,345,5.0,5.0,74,0.00,,---,0.00,VWS V14.01,2013-03-21 12:00:00,
2013-03-21 08:05:00,41.3,33.7,29.68,NNW,346,5.0,6.0,74,0.00,,---,0.00,VWS V14.01,2013-03-21 12:05:00,
2013-03-21 08:10:00,41.6,33.9,29.69,NNW,348,8.0,8.0,74,0.00,,---,0.00,VWS V14.01,2013-03-21 12:10:00,
2013-03-21 08:15:00,41.7,33.3,29.69,NNW,339,3.0,11.0,72,0.00,,---,0.00,VWS V14.01,2013-03-21 12:15:00,
2013-03-21 08:20:00,41.9,33.5,29.69,NW,313,5.0,8.0,72,0.00,,---,0.00,VWS V14.01,2013-03-21 12:20:00,
2013-03-21 08:25:00,41.9,33.5,29.69,NNW,335,7.0,12.0,72,0.00,,---,0.00,VWS V14.01,2013-03-21 12:25:00,
2013-03-21 08:30:00,42.0,33.6,29.69,North,350,7.0,10.0,72,0.00,,---,0.00,VWS V14.01,2013-03-21 12:30:00,
2013-03-21 08:35:00,42.2,34.2,29.69,NNW,334,5.0,10.0,73,0.00,,---,0.00,VWS V14.01,2013-03-21 12:35:00,
2013-03-21 08:40:00,42.4,34.0,29.69,NW,311,4.0,9.0,72,0.00,,---,0.00,VWS V14.01,2013-03-21 12:40:00,
2013-03-21 08:45:00,42.5,33.8,29.69,North,355,10.0,12.0,71,0.00,,---,0.00,VWS V14.01,2013-03-21 12:45:00,
2013-03-21 08:50:00,42.7,34.0,29.69,WNW,303,3.0,7.0,71,0.00,,---,0.00,VWS V14.01,2013-03-21 12:50:00,
2013-03-21 08:55:00,43.2,34.1,29.69,NNE,18,6.0,10.0,70,0.00,,---,0.00,VWS V14.01,2013-03-21 12:55:00,
2013-03-21 09:00:00,43.4,33.9,29.69,NNW,345,6.0,12.0,69,0.00,,---,0.00,VWS V14.01,2013-03-21 13:00:00,
2013-03-21 09:05:00,43.8,33.9,29.69,NNE,15,8.0,11.0,68,0.00,,---,0.00,VWS V14.01,2013-03-21 13:05:00,
2013-03-21 09:10:00,44.1,34.2,29.69,NW,316,9.0,12.0,68,0.00,,---,0.00,VWS V14.01,2013-03-21 13:10:00,
2013-03-21 09:15:00,44.3,34.0,29.69,NNE,14,9.0,13.0,67,0.00,,---,0.00,VWS V14.01,2013-03-21 13:15:00,
2013-03-21 09:20:00,44.6,34.3,29.69,NNW,342,5.0,9.0,67,0.00,,---,0.00,VWS V14.01,2013-03-21 13:20:00,
2013-03-21 09:25:00,44.9,34.6,29.69,North,360,10.0,12.0,67,0.00,,---,0.00,VWS V14.01,2013-03-21 13:25:00,
2013-03-21 09:30:00,44.7,34.0,29.69,North,355,8.0,13.0,66,0.00,,---,0.00,VWS V14.01,2013-03-21 13:30:00,
2013-03-21 09:35:00,45.1,34.4,29.69,North,349,12.0,12.0,66,0.00,,---,0.00,VWS V14.01,2013-03-21 13:35:00,
2013-03-21 09:40:00,45.2,34.5,29.69,NNW,331,6.0,12.0,66,0.00,,---,0.00,VWS V14.01,2013-03-21 13:40:00,
2013-03-21 09:45:00,45.3,34.2,29.68,NNW,333,5.0,12.0,65,0.00,,---,0.00,VWS V14.01,2013-03-21 13:45:00,
2013-03-21 09:50:00,45.8,34.3,29.69,NNW,333,16.0,16.0,64,0.00,,---,0.00,VWS V14.01,2013-03-21 13:50:00,
2013-03-21 09:55:00,46.0,34.5,29.69,NNW,335,10.0,11.0,64,0.00,,---,0.00,VWS V14.01,2013-03-21 13:55:00,
2013-03-21 10:00:00,46.3,34.4,29.69,NW,317,9.0,10.0,63,0.00,,---,0.00,VWS V14.01,2013-03-21 14:00:00,
2013-03-21 10:05:00,46.5,34.2,29.69,NNW,336,5.0,13.0,62,0.00,,---,0.00,VWS V14.01,2013-03-21 14:05:00,
2013-03-21 10:10:00,46.8,34.1,29.68,NNW,334,6.0,12.0,61,0.00,,---,0.00,VWS V14.01,2013-03-21 14:10:00,
2013-03-21 10:15:00,46.8,33.7,29.68,NNW,327,7.0,13.0,60,0.00,,---,0.00,VWS V14.01,2013-03-21 14:15:00,
2013-03-21 10:20:00,47.2,34.5,29.68,NNW,342,8.0,8.0,61,0.00,,---,0.00,VWS V14.01,2013-03-21 14:20:00,
2013-03-21 10:25:00,47.2,33.2,29.68,NW,326,11.0,11.0,58,0.00,,---,0.00,VWS V14.01,2013-03-21 14:25:00,
2013-03-21 10:30:00,47.2,33.6,29.69,NNE,29,3.0,11.0,59,0.00,,---,0.00,VWS V14.01,2013-03-21 14:30:00,
2013-03-21 10:35:00,47.4,33.8,29.69,North,355,11.0,12.0,59,0.00,,---,0.00,VWS V14.01,2013-03-21 14:35:00,
2013-03-21 10:40:00,47.5,33.5,29.69,NW,323,8.0,14.0,58,0.00,,---,0.00,VWS V14.01,2013-03-21 14:40:00,
2013-03-21 10:45:00,47.3,33.3,29.69,NW,313,9.0,16.0,58,0.00,,---,0.00,VWS V14.01,2013-03-21 14:45:00,
2013-03-21 10:50:00,47.6,34.4,29.69,NW,325,18.0,18.0,60,0.00,,---,0.00,VWS V14.01,2013-03-21 14:50:00,
2013-03-21 10:55:00,47.4,33.4,29.69,NW,306,10.0,17.0,58,0.00,,---,0.00,VWS V14.01,2013-03-21 14:55:00,
2013-03-21 11:00:00,47.3,33.3,29.69,NW,308,10.0,14.0,58,0.00,,---,0.00,VWS V14.01,2013-03-21 15:00:00,
2013-03-21 11:05:00,47.9,33.8,29.69,NW,310,8.0,16.0,58,0.00,,---,0.00,VWS V14.01,2013-03-21 15:05:00,
2013-03-21 11:10:00,48.1,33.2,29.69,NW,310,6.0,16.0,56,0.00,,---,0.00,VWS V14.01,2013-03-21 15:10:00,
2013-03-21 11:15:00,47.9,32.1,29.69,NNW,336,11.0,18.0,54,0.00,,---,0.00,VWS V14.01,2013-03-21 15:15:00,
2013-03-21 11:20:00,48.1,33.2,29.69,WNW,288,14.0,16.0,56,0.00,,---,0.00,VWS V14.01,2013-03-21 15:20:00,
2013-03-21 11:25:00,48.4,32.5,29.69,NW,312,17.0,17.0,54,0.00,,---,0.00,VWS V14.01,2013-03-21 15:25:00,
2013-03-21 11:30:00,48.6,32.3,29.69,West,273,8.0,14.0,53,0.00,,---,0.00,VWS V14.01,2013-03-21 15:30:00,
2013-03-21 11:35:00,49.0,31.7,29.68,NW,316,11.0,17.0,51,0.00,,---,0.00,VWS V14.01,2013-03-21 15:35:00,
2013-03-21 11:40:00,49.1,31.8,29.68,NNW,333,8.0,17.0,51,0.00,,---,0.00,VWS V14.01,2013-03-21 15:40:00,
2013-03-21 11:45:00,49.1,31.3,29.69,NW,305,16.0,22.0,50,0.00,,---,0.00,VWS V14.01,2013-03-21 15:45:00,
2013-03-21 11:50:00,49.0,30.7,29.69,NW,319,7.0,21.0,49,0.00,,---,0.00,VWS V14.01,2013-03-21 15:50:00,
2013-03-21 11:55:00,49.4,31.6,29.69,WNW,300,15.0,20.0,50,0.00,,---,0.00,VWS V14.01,2013-03-21 15:55:00,
2013-03-21 12:00:00,49.5,30.6,29.69,NW,318,9.0,18.0,48,0.00,,---,0.00,VWS V14.01,2013-03-21 16:00:00,
2013-03-21 12:05:00,49.5,31.6,29.68,NNW,334,8.0,15.0,50,0.00,,---,0.00,VWS V14.01,2013-03-21 16:05:00,
2013-03-21 12:10:00,49.6,31.2,29.69,NNW,344,11.0,16.0,49,0.00,,---,0.00,VWS V14.01,2013-03-21 16:10:00,
2013-03-21 12:15:00,49.6,31.2,29.69,North,9,9.0,15.0,49,0.00,,---,0.00,VWS V14.01,2013-03-21 16:15:00,
2013-03-21 12:20:00,50.1,31.7,29.69,NW,325,12.0,16.0,49,0.00,,---,0.00,VWS V14.01,2013-03-21 16:20:00,
2013-03-21 12:25:00,50.2,31.3,29.69,NNW,336,4.0,17.0,48,0.00,,---,0.00,VWS V14.01,2013-03-21 16:25:00,
2013-03-21 12:30:00,49.9,29.4,29.69,NNW,336,11.0,14.0,45,0.00,,---,0.00,VWS V14.01,2013-03-21 16:30:00,
2013-03-21 12:35:00,50.2,31.3,29.69,North,360,10.0,15.0,48,0.00,,---,0.00,VWS V14.01,2013-03-21 16:35:00,
2013-03-21 12:40:00,49.7,30.3,29.69,NNW,347,15.0,16.0,47,0.00,,---,0.00,VWS V14.01,2013-03-21 16:40:00,
2013-03-21 12:45:00,49.7,30.3,29.69,NW,304,11.0,20.0,47,0.00,,---,0.00,VWS V14.01,2013-03-21 16:45:00,
2013-03-21 12:50:00,50.1,30.7,29.69,NNW,336,11.0,14.0,47,0.00,,---,0.00,VWS V14.01,2013-03-21 16:50:00,
2013-03-21 12:55:00,50.0,30.6,29.69,WNW,296,11.0,20.0,47,0.00,,---,0.00,VWS V14.01,2013-03-21 16:55:00,
2013-03-21 13:00:00,49.9,30.5,29.69,NW,326,13.0,16.0,47,0.00,,---,0.00,VWS V14.01,2013-03-21 17:00:00,
2013-03-21 13:05:00,50.2,30.8,29.70,WNW,295,8.0,14.0,47,0.00,,---,0.00,VWS V14.01,2013-03-21 17:05:00,
2013-03-21 13:10:00,50.8,30.2,29.70,West,279,12.0,18.0,45,0.00,,---,0.00,VWS V14.01,2013-03-21 17:10:00,
2013-03-21 13:15:00,50.3,28.7,29.70,NW,309,16.0,20.0,43,0.00,,---,0.00,VWS V14.01,2013-03-21 17:15:00,
2013-03-21 13:20:00,50.2,29.1,29.70,NW,304,17.0,18.0,44,0.00,,---,0.00,VWS V14.01,2013-03-21 17:20:00,
2013-03-21 13:25:00,49.6,28.0,29.70,WNW,302,15.0,19.0,43,0.00,,---,0.00,VWS V14.01,2013-03-21 17:25:00,
2013-03-21 13:30:00,50.1,28.5,29.70,West,270,15.0,19.0,43,0.00,,---,0.00,VWS V14.01,2013-03-21 17:30:00,
2013-03-21 13:35:00,50.4,27.6,29.70,WNW,302,12.0,18.0,41,0.00,,---,0.00,VWS V14.01,2013-03-21 17:35:00,
2013-03-21 13:40:00,50.2,28.6,29.70,NNW,340,14.0,20.0,43,0.00,,---,0.00,VWS V14.01,2013-03-21 17:40:00,
2013-03-21 13:45:00,51.0,28.7,29.70,WNW,285,12.0,12.0,42,0.00,,---,0.00,VWS V14.01,2013-03-21 17:45:00,
2013-03-21 13:50:00,50.9,27.5,29.70,WNW,284,16.0,23.0,40,0.00,,---,0.00,VWS V14.01,2013-03-21 17:50:00,
2013-03-21 13:55:00,51.2,27.1,29.70,NW,311,16.0,18.0,39,0.00,,---,0.00,VWS V14.01,2013-03-21 17:55:00,
2013-03-21 14:00:00,50.6,26.6,29.70,WNW,299,13.0,20.0,39,0.00,,---,0.00,VWS V14.01,2013-03-21 18:00:00,
2013-03-21 14:05:00,50.1,26.1,29.70,WNW,288,22.0,22.0,39,0.00,,---,0.00,VWS V14.01,2013-03-21 18:05:00,
2013-03-21 14:10:00,50.4,25.8,29.69,WNW,286,18.0,19.0,38,0.00,,---,0.00,VWS V14.01,2013-03-21 18:10:00,
2013-03-21 14:15:00,50.0,26.0,29.69,NW,319,18.0,18.0,39,0.00,,---,0.00,VWS V14.01,2013-03-21 18:15:00,
2013-03-21 14:20:00,50.3,25.7,29.69,West,281,17.0,17.0,38,0.00,,---,0.00,VWS V14.01,2013-03-21 18:20:00,
2013-03-21 14:25:00,50.1,24.9,29.69,WNW,293,14.0,17.0,37,0.00,,---,0.00,VWS V14.01,2013-03-21 18:25:00,
2013-03-21 14:30:00,50.2,27.4,29.69,NW,319,18.0,18.0,41,0.00,,---,0.00,VWS V14.01,2013-03-21 18:30:00,
2013-03-21 14:35:00,50.6,26.0,29.69,WNW,285,16.0,19.0,38,0.00,,---,0.00,VWS V14.01,2013-03-21 18:35:00,
2013-03-21 14:40:00,50.4,25.1,29.69,West,279,12.0,18.0,37,0.00,,---,0.00,VWS V14.01,2013-03-21 18:40:00,
2013-03-21 14:45:00,50.9,26.8,29.69,WNW,291,12.0,16.0,39,0.00,,---,0.00,VWS V14.01,2013-03-21 18:45:00,
2013-03-21 14:50:00,51.0,25.7,29.69,WNW,294,22.0,25.0,37,0.00,,---,0.00,VWS V14.01,2013-03-21 18:50:00,
2013-03-21 14:55:00,50.7,24.7,29.69,NW,322,15.0,18.0,36,0.00,,---,0.00,VWS V14.01,2013-03-21 18:55:00,
2013-03-21 15:00:00,50.1,23.5,29.69,WNW,298,16.0,18.0,35,0.00,,---,0.00,VWS V14.01,2013-03-21 19:00:00,
2013-03-21 15:05:00,50.7,25.4,29.69,West,279,14.0,18.0,37,0.00,,---,0.00,VWS V14.01,2013-03-21 19:05:00,
2013-03-21 15:10:00,50.6,25.3,29.69,WNW,300,15.0,21.0,37,0.00,,---,0.00,VWS V14.01,2013-03-21 19:10:00,
2013-03-21 15:15:00,51.0,24.3,29.69,WNW,296,14.0,21.0,35,0.00,,---,0.00,VWS V14.01,2013-03-21 19:15:00,
2013-03-21 15:20:00,50.9,24.9,29.69,North,355,12.0,15.0,36,0.00,,---,0.00,VWS V14.01,2013-03-21 19:20:00,
2013-03-21 15:25:00,50.6,24.0,29.69,WNW,295,18.0,23.0,35,0.00,,---,0.00,VWS V14.01,2013-03-21 19:25:00,
2013-03-21 15:30:00,49.7,23.2,29.69,WNW,303,12.0,20.0,35,0.00,,---,0.00,VWS V14.01,2013-03-21 19:30:00,
2013-03-21 15:35:00,49.5,24.3,29.69,NNW,329,10.0,22.0,37,0.00,,---,0.00,VWS V14.01,2013-03-21 19:35:00,
2013-03-21 15:40:00,49.4,24.2,29.69,NW,315,9.0,18.0,37,0.00,,---,0.00,VWS V14.01,2013-03-21 19:40:00,
2013-03-21 15:45:00,50.0,24.1,29.69,WNW,291,15.0,18.0,36,0.00,,---,0.00,VWS V14.01,2013-03-21 19:45:00,
2013-03-21 15:50:00,50.5,23.9,29.69,NNW,334,13.0,15.0,35,0.00,,---,0.00,VWS V14.01,2013-03-21 19:50:00,
2013-03-21 15:55:00,50.2,22.9,29.70,WNW,300,11.0,23.0,34,0.00,,---,0.00,VWS V14.01,2013-03-21 19:55:00,
2013-03-21 16:00:00,49.8,23.9,29.70,WNW,286,12.0,19.0,36,0.00,,---,0.00,VWS V14.01,2013-03-21 20:00:00,
2013-03-21 16:05:00,50.2,24.3,29.70,WNW,289,13.0,16.0,36,0.00,,---,0.00,VWS V14.01,2013-03-21 20:05:00,
2013-03-21 16:10:00,50.3,23.0,29.70,WNW,303,11.0,16.0,34,0.00,,---,0.00,VWS V14.01,2013-03-21 20:10:00,
2013-03-21 16:15:00,50.0,24.1,29.70,West,281,13.0,20.0,36,0.00,,---,0.00,VWS V14.01,2013-03-21 20:15:00,
2013-03-21 16:20:00,49.7,23.9,29.70,NW,306,8.0,17.0,36,0.00,,---,0.00,VWS V14.01,2013-03-21 20:20:00,
2013-03-21 16:25:00,49.9,22.7,29.70,WNW,287,13.0,17.0,34,0.00,,---,0.00,VWS V14.01,2013-03-21 20:25:00,
2013-03-21 16:30:00,49.6,23.1,29.70,WNW,303,14.0,18.0,35,0.00,,---,0.00,VWS V14.01,2013-03-21 20:30:00,
2013-03-21 16:35:00,49.6,23.1,29.70,NW,326,10.0,15.0,35,0.00,,---,0.00,VWS V14.01,2013-03-21 20:35:00,
2013-03-21 16:40:00,50.1,22.1,29.70,WNW,286,12.0,21.0,33,0.00,,---,0.00,VWS V14.01,2013-03-21 20:40:00,
2013-03-21 16:45:00,50.0,22.0,29.70,West,263,13.0,18.0,33,0.00,,---,0.00,VWS V14.01,2013-03-21 20:45:00,
2013-03-21 16:50:00,50.2,22.2,29.70,WNW,294,8.0,15.0,33,0.00,,---,0.00,VWS V14.01,2013-03-21 20:50:00,
2013-03-21 16:55:00,50.5,21.8,29.71,NW,311,11.0,15.0,32,0.00,,---,0.00,VWS V14.01,2013-03-21 20:55:00,
2013-03-21 17:00:00,49.9,28.3,29.71,NNW,346,8.0,23.0,43,0.00,,---,0.00,VWS V14.01,2013-03-21 21:00:00,
2013-03-21 17:05:00,49.4,28.4,29.71,NW,321,10.0,13.0,44,0.00,,---,0.00,VWS V14.01,2013-03-21 21:05:00,
2013-03-21 17:10:00,49.0,28.0,29.71,NNW,327,6.0,13.0,44,0.00,,---,0.00,VWS V14.01,2013-03-21 21:10:00,
2013-03-21 17:15:00,48.7,28.9,29.72,NE,36,6.0,10.0,46,0.00,,---,0.00,VWS V14.01,2013-03-21 21:15:00,
2013-03-21 17:20:00,48.4,28.6,29.72,North,351,8.0,14.0,46,0.00,,---,0.00,VWS V14.01,2013-03-21 21:20:00,
2013-03-21 17:25:00,48.3,29.5,29.72,NW,325,9.0,13.0,48,0.00,,---,0.00,VWS V14.01,2013-03-21 21:25:00,
2013-03-21 17:30:00,48.1,28.3,29.72,North,355,8.0,16.0,46,0.00,,---,0.00,VWS V14.01,2013-03-21 21:30:00,
2013-03-21 17:35:00,47.9,28.7,29.73,North,355,11.0,13.0,47,0.00,,---,0.00,VWS V14.01,2013-03-21 21:35:00,
2013-03-21 17:40:00,48.0,28.8,29.73,NNE,33,11.0,13.0,47,0.00,,---,0.00,VWS V14.01,2013-03-21 21:40:00,
2013-03-21 17:45:00,48.2,28.9,29.73,NNE,30,5.0,11.0,47,0.00,,---,0.00,VWS V14.01,2013-03-21 21:45:00,
2013-03-21 17:50:00,48.4,29.1,29.73,NNW,344,7.0,13.0,47,0.00,,---,0.00,VWS V14.01,2013-03-21 21:50:00,
2013-03-21 17:55:00,48.1,28.3,29.73,North,5,7.0,13.0,46,0.00,,---,0.00,VWS V14.01,2013-03-21 21:55:00,
2013-03-21 18:00:00,48.1,27.8,29.74,NNW,340,7.0,15.0,45,0.00,,---,0.00,VWS V14.01,2013-03-21 22:00:00,
2013-03-21 18:05:00,48.3,29.0,29.74,NW,304,13.0,13.0,47,0.00,,---,0.00,VWS V14.01,2013-03-21 22:05:00,
2013-03-21 18:10:00,48.2,28.4,29.74,NNW,337,9.0,12.0,46,0.00,,---,0.00,VWS V14.01,2013-03-21 22:10:00,
2013-03-21 18:15:00,48.4,29.1,29.75,NNW,331,4.0,7.0,47,0.00,,---,0.00,VWS V14.01,2013-03-21 22:15:00,
2013-03-21 18:20:00,48.3,28.5,29.75,NNW,333,5.0,9.0,46,0.00,,---,0.00,VWS V14.01,2013-03-21 22:20:00,
2013-03-21 18:25:00,48.4,28.0,29.75,NW,317,5.0,12.0,45,0.00,,---,0.00,VWS V14.01,2013-03-21 22:25:00,
2013-03-21 18:30:00,48.4,27.5,29.75,WNW,302,8.0,12.0,44,0.00,,---,0.00,VWS V14.01,2013-03-21 22:30:00,
2013-03-21 18:35:00,48.6,22.2,29.75,NNW,328,9.0,17.0,35,0.00,,---,0.00,VWS V14.01,2013-03-21 22:35:00,
2013-03-21 18:40:00,48.8,18.8,29.75,West,276,12.0,17.0,30,0.00,,---,0.00,VWS V14.01,2013-03-21 22:40:00,
2013-03-21 18:45:00,48.7,19.4,29.76,WNW,300,17.0,21.0,31,0.00,,---,0.00,VWS V14.01,2013-03-21 22:45:00,
2013-03-21 18:50:00,48.6,17.8,29.76,NW,319,10.0,20.0,29,0.00,,---,0.00,VWS V14.01,2013-03-21 22:50:00,
2013-03-21 18:55:00,48.5,18.5,29.77,NW,308,16.0,16.0,30,0.00,,---,0.00,VWS V14.01,2013-03-21 22:55:00,
2013-03-21 19:00:00,48.2,18.2,29.77,NW,321,12.0,18.0,30,0.00,,---,0.00,VWS V14.01,2013-03-21 23:00:00,
2013-03-21 19:05:00,48.1,18.9,29.77,WNW,300,12.0,15.0,31,0.00,,---,0.00,VWS V14.01,2013-03-21 23:05:00,
2013-03-21 19:10:00,47.9,18.0,29.78,NW,313,8.0,14.0,30,0.00,,---,0.00,VWS V14.01,2013-03-21 23:10:00,
2013-03-21 19:15:00,47.7,18.6,29.78,NW,319,9.0,17.0,31,0.00,,---,0.00,VWS V14.01,2013-03-21 23:15:00,
2013-03-21 19:20:00,47.6,17.7,29.79,NNW,343,6.0,17.0,30,0.00,,---,0.00,VWS V14.01,2013-03-21 23:20:00,
2013-03-21 19:25:00,47.4,18.3,29.79,NW,307,11.0,21.0,31,0.00,,---,0.00,VWS V14.01,2013-03-21 23:25:00,
2013-03-21 19:30:00,47.2,18.1,29.79,NW,304,11.0,15.0,31,0.00,,---,0.00,VWS V14.01,2013-03-21 23:30:00,
2013-03-21 19:35:00,47.0,18.0,29.80,NW,319,10.0,13.0,31,0.00,,---,0.00,VWS V14.01,2013-03-21 23:35:00,
2013-03-21 19:40:00,46.8,19.2,29.80,NNW,340,10.0,14.0,33,0.00,,---,0.00,VWS V14.01,2013-03-21 23:40:00,
2013-03-21 19:45:00,46.7,18.4,29.80,NW,323,10.0,16.0,32,0.00,,---,0.00,VWS V14.01,2013-03-21 23:45:00,
2013-03-21 19:50:00,46.6,18.3,29.80,NNW,331,14.0,15.0,32,0.00,,---,0.00,VWS V14.01,2013-03-21 23:50:00,
2013-03-21 19:55:00,46.5,19.0,29.80,NW,317,4.0,10.0,33,0.00,,---,0.00,VWS V14.01,2013-03-21 23:55:00,
2013-03-21 20:00:00,46.4,19.6,29.81,North,360,6.0,13.0,34,0.00,,---,0.00,VWS V14.01,2013-03-22 00:00:00,
2013-03-21 20:05:00,45.9,25.2,29.81,NNE,13,7.0,9.0,44,0.00,,---,0.00,VWS V14.01,2013-03-22 00:05:00,
2013-03-21 20:10:00,44.9,26.9,29.82,NNE,24,8.0,8.0,49,0.00,,---,0.00,VWS V14.01,2013-03-22 00:10:00,
2013-03-21 20:15:00,44.1,27.6,29.82,NNE,27,4.0,10.0,52,0.00,,---,0.00,VWS V14.01,2013-03-22 00:15:00,
2013-03-21 20:20:00,43.7,28.2,29.82,NNE,24,7.0,9.0,54,0.00,,---,0.00,VWS V14.01,2013-03-22 00:20:00,
2013-03-21 20:25:00,43.6,28.5,29.83,NNE,17,5.0,7.0,55,0.00,,---,0.00,VWS V14.01,2013-03-22 00:25:00,
2013-03-21 20:30:00,43.4,28.8,29.83,NNE,12,4.0,8.0,56,0.00,,---,0.00,VWS V14.01,2013-03-22 00:30:00,
2013-03-21 20:35:00,43.2,29.0,29.83,NNE,25,6.0,6.0,57,0.00,,---,0.00,VWS V14.01,2013-03-22 00:35:00,
2013-03-21 20:40:00,43.2,28.1,29.84,North,11,0.0,7.0,55,0.00,,---,0.00,VWS V14.01,2013-03-22 00:40:00,
2013-03-21 20:45:00,43.2,28.6,29.84,NNE,17,0.0,5.0,56,0.00,,---,0.00,VWS V14.01,2013-03-22 00:45:00,
2013-03-21 20:50:00,43.0,28.8,29.84,NNW,348,0.0,7.0,57,0.00,,---,0.00,VWS V14.01,2013-03-22 00:50:00,
2013-03-21 20:55:00,42.8,28.6,29.84,North,5,2.0,5.0,57,0.00,,---,0.00,VWS V14.01,2013-03-22 00:55:00,
2013-03-21 21:00:00,42.6,28.9,29.85,NE,36,0.0,7.0,58,0.00,,---,0.00,VWS V14.01,2013-03-22 01:00:00,
2013-03-21 21:05:00,42.5,27.9,29.85,NNE,17,4.0,9.0,56,0.00,,---,0.00,VWS V14.01,2013-03-22 01:05:00,
2013-03-21 21:10:00,42.2,27.6,29.85,North,355,4.0,9.0,56,0.00,,---,0.00,VWS V14.01,2013-03-22 01:10:00,
2013-03-21 21:15:00,42.0,26.6,29.85,North,5,4.0,9.0,54,0.00,,---,0.00,VWS V14.01,2013-03-22 01:15:00,
2013-03-21 21:20:00,42.0,25.7,29.86,North,350,8.0,11.0,52,0.00,,---,0.00,VWS V14.01,2013-03-22 01:20:00,
2013-03-21 21:25:00,42.0,24.7,29.86,North,360,6.0,9.0,50,0.00,,---,0.00,VWS V14.01,2013-03-22 01:25:00,
2013-03-21 21:30:00,42.0,23.8,29.86,NNW,340,4.0,10.0,48,0.00,,---,0.00,VWS V14.01,2013-03-22 01:30:00,
2013-03-21 21:35:00,41.8,23.1,29.87,North,350,9.0,13.0,47,0.00,,---,0.00,VWS V14.01,2013-03-22 01:35:00,
2013-03-21 21:40:00,41.7,21.9,29.87,NW,315,11.0,12.0,45,0.00,,---,0.00,VWS V14.01,2013-03-22 01:40:00,
2013-03-21 21:45:00,41.6,21.9,29.88,NNW,344,8.0,11.0,45,0.00,,---,0.00,VWS V14.01,2013-03-22 01:45:00,
2013-03-21 21:50:00,41.4,21.7,29.88,NNE,17,5.0,11.0,45,0.00,,---,0.00,VWS V14.01,2013-03-22 01:50:00,
2013-03-21 21:55:00,41.2,21.0,29.88,NNW,343,8.0,9.0,44,0.00,,---,0.00,VWS V14.01,2013-03-22 01:55:00,
2013-03-21 22:00:00,41.1,20.9,29.89,North,5,8.0,14.0,44,0.00,,---,0.00,VWS V14.01,2013-03-22 02:00:00,
2013-03-21 22:05:00,40.9,20.7,29.89,North,355,8.0,10.0,44,0.00,,---,0.00,VWS V14.01,2013-03-22 02:05:00,
2013-03-21 22:10:00,40.8,20.0,29.89,North,9,10.0,12.0,43,0.00,,---,0.00,VWS V14.01,2013-03-22 02:10:00,
2013-03-21 22:15:00,40.6,19.3,29.89,North,355,7.0,16.0,42,0.00,,---,0.00,VWS V14.01,2013-03-22 02:15:00,
2013-03-21 22:20:00,40.4,19.7,29.89,North,5,12.0,12.0,43,0.00,,---,0.00,VWS V14.01,2013-03-22 02:20:00,
2013-03-21 22:25:00,40.2,19.5,29.89,North,9,11.0,16.0,43,0.00,,---,0.00,VWS V14.01,2013-03-22 02:25:00,
2013-03-21 22:30:00,40.0,19.3,29.89,North,5,1.0,13.0,43,0.00,,---,0.00,VWS V14.01,2013-03-22 02:30:00,
2013-03-21 22:35:00,39.9,18.7,29.89,NNW,347,4.0,13.0,42,0.00,,---,0.00,VWS V14.01,2013-03-22 02:35:00,
2013-03-21 22:40:00,39.7,18.5,29.90,North,5,12.0,12.0,42,0.00,,---,0.00,VWS V14.01,2013-03-22 02:40:00,
2013-03-21 22:45:00,39.6,19.0,29.90,North,350,5.0,7.0,43,0.00,,---,0.00,VWS V14.01,2013-03-22 02:45:00,
2013-03-21 22:50:00,39.5,18.9,29.90,NNW,339,12.0,12.0,43,0.00,,---,0.00,VWS V14.01,2013-03-22 02:50:00,
2013-03-21 22:55:00,39.3,18.7,29.90,NNE,19,9.0,11.0,43,0.00,,---,0.00,VWS V14.01,2013-03-22 02:55:00,
2013-03-21 23:00:00,39.2,18.6,29.90,North,5,7.0,9.0,43,0.00,,---,0.00,VWS V14.01,2013-03-22 03:00:00,
2013-03-21 23:05:00,39.1,18.5,29.90,NNE,30,5.0,12.0,43,0.00,,---,0.00,VWS V14.01,2013-03-22 03:05:00,
2013-03-21 23:10:00,38.9,18.9,29.91,NNE,22,5.0,10.0,44,0.00,,---,0.00,VWS V14.01,2013-03-22 03:10:00,
2013-03-21 23:15:00,38.8,18.2,29.91,NNE,28,4.0,10.0,43,0.00,,---,0.00,VWS V14.01,2013-03-22 03:15:00,
2013-03-21 23:20:00,38.6,18.6,29.91,NNW,346,6.0,8.0,44,0.00,,---,0.00,VWS V14.01,2013-03-22 03:20:00,
2013-03-21 23:25:00,38.4,18.4,29.91,NNW,344,7.0,10.0,44,0.00,,---,0.00,VWS V14.01,2013-03-22 03:25:00,
2013-03-21 23:30:00,38.3,17.8,29.91,NNW,336,8.0,10.0,43,0.00,,---,0.00,VWS V14.01,2013-03-22 03:30:00,
2013-03-21 23:35:00,38.1,18.1,29.91,NNW,338,8.0,11.0,44,0.00,,---,0.00,VWS V14.01,2013-03-22 03:35:00,
2013-03-21 23:40:00,37.9,18.0,29.92,North,350,9.0,10.0,44,0.00,,---,0.00,VWS V14.01,2013-03-22 03:40:00,
2013-03-21 23:45:00,37.8,17.9,29.92,North,355,7.0,15.0,44,0.00,,---,0.00,VWS V14.01,2013-03-22 03:45:00,
2013-03-21 23:50:00,37.7,17.8,29.92,North,360,3.0,11.0,44,0.00,,---,0.00,VWS V14.01,2013-03-22 03:50:00,
2013-03-21 23:55:00,37.6,17.7,29.92,NNE,15,6.0,9.0,44,0.00,,---,0.00,VWS V14.01,2013-03-22 03:55:00,